createdAt,value
2022-08-25T00:00:50.507Z,91.74
2022-08-25T00:03:52.931Z,91.72
2022-08-25T00:06:59.361Z,92.87
2022-08-25T00:10:06.366Z,93.89
2022-08-25T00:13:08.062Z,93.67
2022-08-25T00:16:17.271Z,94.40
2022-08-25T00:19:25.564Z,95.41
2022-08-25T00:22:27.331Z,96.00
2022-08-25T00:25:29.135Z,96.23
2022-08-25T00:28:31.180Z,96.09
2022-08-25T00:31:38.404Z,97.54
2022-08-25T00:34:40.865Z,96.59
2022-08-25T00:37:42.690Z,96.02
2022-08-25T00:40:45.300Z,96.23
2022-08-25T00:44:12.798Z,96.24
2022-08-25T00:47:14.772Z,96.96
2022-08-25T00:50:17.335Z,97.55
2022-08-25T00:53:19.534Z,97.17
2022-08-25T00:56:21.522Z,98.36
2022-08-25T00:59:26.491Z,99.39
2022-08-25T01:02:28.338Z,98.62
2022-08-25T01:05:30.846Z,98.34
2022-08-25T01:08:33.562Z,98.97
2022-08-25T01:11:35.945Z,99.68
2022-08-25T01:14:38.858Z,99.82
2022-08-25T01:17:55.782Z,99.92
2022-08-25T01:20:59.797Z,100.00
2022-08-25T01:24:01.614Z,100.00
2022-08-25T01:27:04.144Z,100.00
2022-08-25T01:30:06.549Z,100.00
2022-08-25T01:33:11.785Z,100.00
2022-08-25T01:36:19.063Z,100.00
2022-08-25T01:39:20.974Z,100.00
2022-08-25T01:42:28.793Z,100.00
2022-08-25T01:45:30.432Z,100.00
2022-08-25T01:48:33.301Z,100.00
2022-08-25T01:51:42.457Z,100.00
2022-08-25T01:54:44.403Z,100.00
2022-08-25T01:57:46.392Z,100.00
2022-08-25T02:00:49.647Z,100.00
2022-08-25T02:03:53.997Z,100.00
2022-08-25T02:06:55.764Z,100.00
2022-08-25T02:09:58.753Z,100.00
2022-08-25T02:13:05.688Z,100.00
2022-08-25T02:16:18.206Z,100.00
2022-08-25T02:19:24.360Z,100.00
2022-08-25T02:22:26.547Z,100.00
2022-08-25T02:25:28.638Z,100.00
2022-08-25T02:28:30.255Z,100.00
2022-08-25T02:31:32.239Z,100.00
2022-08-25T02:34:34.091Z,100.00
2022-08-25T02:37:36.171Z,100.00
2022-08-25T02:40:38.131Z,100.00
2022-08-25T02:43:42.214Z,100.00
2022-08-25T02:46:44.002Z,100.00
2022-08-25T02:49:45.773Z,100.00
2022-08-25T02:52:50.573Z,100.00
2022-08-25T02:55:52.332Z,100.00
2022-08-25T02:58:54.177Z,100.00
2022-08-25T03:01:56.193Z,100.00
2022-08-25T03:04:58.209Z,100.00
2022-08-25T03:08:00.387Z,100.00
2022-08-25T03:11:02.331Z,100.00
2022-08-25T03:14:06.478Z,100.00
2022-08-25T03:17:08.868Z,100.00
2022-08-25T03:20:11.388Z,100.00
2022-08-25T03:23:13.107Z,100.00
2022-08-25T03:26:33.469Z,100.00
2022-08-25T03:29:35.811Z,100.00
2022-08-25T03:32:37.716Z,100.00
2022-08-25T03:35:39.456Z,100.00
2022-08-25T03:38:42.097Z,100.00
2022-08-25T03:41:44.321Z,100.00
2022-08-25T03:44:46.121Z,100.00
2022-08-25T03:47:49.558Z,100.00
2022-08-25T03:50:52.294Z,100.00
2022-08-25T03:53:55.259Z,100.00
2022-08-25T03:56:57.034Z,100.00
2022-08-25T03:59:58.771Z,100.00
2022-08-25T04:03:01.021Z,100.00
2022-08-25T04:06:04.905Z,100.00
2022-08-25T04:09:08.119Z,100.00
2022-08-25T04:12:10.031Z,100.00
2022-08-25T04:15:12.084Z,100.00
2022-08-25T04:18:14.122Z,100.00
2022-08-25T04:21:17.671Z,100.00
2022-08-25T04:24:20.662Z,100.00
2022-08-25T04:27:22.459Z,100.00
2022-08-25T04:30:24.338Z,100.00
2022-08-25T04:33:26.252Z,100.00
2022-08-25T04:36:28.080Z,100.00
2022-08-25T04:39:30.506Z,100.00
2022-08-25T04:42:32.364Z,100.00
2022-08-25T04:45:39.780Z,100.00
2022-08-25T04:48:42.015Z,100.00
2022-08-25T04:51:44.145Z,100.00
2022-08-25T04:54:45.769Z,100.00
2022-08-25T04:57:47.634Z,100.00
2022-08-25T05:00:49.540Z,100.00
2022-08-25T05:03:59.505Z,100.00
2022-08-25T05:07:01.805Z,100.00
2022-08-25T05:10:04.356Z,100.00
2022-08-25T05:13:06.323Z,100.00
2022-08-25T05:16:09.845Z,100.00
2022-08-25T05:19:13.549Z,100.00
2022-08-25T05:22:15.439Z,100.00
2022-08-25T05:25:18.264Z,100.00
2022-08-25T05:28:21.146Z,100.00
2022-08-25T05:31:24.812Z,100.00
2022-08-25T05:34:26.698Z,100.00
2022-08-25T05:37:28.573Z,100.00
2022-08-25T05:40:33.046Z,100.00
2022-08-25T05:43:36.385Z,100.00
2022-08-25T05:46:38.494Z,100.00
2022-08-25T05:49:40.336Z,100.00
2022-08-25T05:52:42.407Z,100.00
2022-08-25T05:55:45.138Z,100.00
2022-08-25T05:58:47.573Z,100.00
2022-08-25T06:02:08.194Z,100.00
2022-08-25T06:05:13.600Z,100.00
2022-08-25T06:08:16.101Z,100.00
2022-08-25T06:11:17.847Z,100.00
2022-08-25T06:14:20.374Z,100.00
2022-08-25T06:17:23.013Z,100.00
2022-08-25T06:20:27.283Z,100.00
2022-08-25T06:23:29.251Z,100.00
2022-08-25T06:26:31.914Z,100.00
2022-08-25T06:29:33.808Z,100.00
2022-08-25T06:32:39.115Z,100.00
2022-08-25T06:35:46.860Z,100.00
2022-08-25T06:38:48.674Z,100.00
2022-08-25T06:41:54.952Z,100.00
2022-08-25T06:44:57.272Z,100.00
2022-08-25T06:47:59.610Z,100.00
2022-08-25T06:51:05.624Z,100.00
2022-08-25T06:54:08.233Z,100.00
2022-08-25T06:57:09.988Z,100.00
2022-08-25T07:00:12.473Z,100.00
2022-08-25T07:03:14.509Z,100.00
2022-08-25T07:06:18.730Z,100.00
2022-08-25T07:09:20.513Z,100.00
2022-08-25T07:12:22.637Z,100.00
2022-08-25T07:15:24.622Z,100.00
2022-08-25T07:18:27.188Z,100.00
2022-08-25T07:21:33.689Z,100.00
2022-08-25T07:24:37.929Z,100.00
2022-08-25T07:27:41.128Z,100.00
2022-08-25T07:30:45.047Z,100.00
2022-08-25T07:34:12.260Z,100.00
2022-08-25T07:37:23.778Z,100.00
2022-08-25T07:40:38.545Z,100.00
2022-08-25T07:43:45.090Z,100.00
2022-08-25T07:46:47.081Z,100.00
2022-08-25T07:49:48.959Z,100.00
2022-08-25T07:52:55.015Z,100.00
2022-08-25T07:56:12.845Z,100.00
2022-08-25T07:59:14.712Z,100.00
2022-08-25T08:02:19.011Z,100.00
2022-08-25T08:05:21.575Z,100.00
2022-08-25T08:08:26.072Z,100.00
2022-08-25T08:11:30.649Z,100.00
2022-08-25T08:14:32.871Z,100.00
2022-08-25T08:17:35.044Z,100.00
2022-08-25T08:20:42.627Z,100.00
2022-08-25T08:23:45.861Z,100.00
2022-08-25T08:26:58.257Z,100.00
2022-08-25T08:30:02.054Z,100.00
2022-08-25T08:33:10.121Z,100.00
2022-08-25T08:36:13.805Z,100.00
2022-08-25T08:39:17.486Z,99.96
2022-08-25T08:42:47.242Z,99.61
2022-08-25T08:45:56.785Z,99.56
2022-08-25T08:49:10.525Z,98.41
2022-08-25T08:52:15.314Z,97.24
2022-08-25T08:55:27.475Z,95.58
2022-08-25T08:58:50.125Z,95.24
2022-08-25T09:01:59.427Z,93.74
2022-08-25T09:05:08.674Z,93.28
2022-08-25T09:08:13.584Z,92.16
2022-08-25T09:11:37.475Z,92.35
2022-08-25T09:14:57.460Z,90.37
2022-08-25T09:18:12.118Z,89.41
2022-08-25T09:21:23.811Z,88.88
2022-08-25T09:24:41.631Z,86.84
2022-08-25T09:28:08.490Z,85.14
2022-08-25T09:31:38.894Z,83.78
2022-08-25T09:34:41.783Z,81.93
2022-08-25T09:37:56.088Z,81.16
2022-08-25T09:41:02.969Z,78.77
2022-08-25T09:44:05.458Z,78.74
2022-08-25T09:47:28.060Z,78.78
2022-08-25T09:50:36.727Z,76.27
2022-08-25T09:53:50.517Z,74.92
2022-08-25T09:56:58.724Z,74.84
2022-08-25T10:00:19.715Z,74.90
2022-08-25T10:03:24.756Z,74.76
2022-08-25T10:06:34.074Z,73.22
2022-08-25T10:09:42.176Z,74.27
2022-08-25T10:12:51.456Z,74.08
2022-08-25T10:16:20.130Z,72.12
2022-08-25T10:19:27.914Z,73.44
2022-08-25T10:22:33.007Z,73.65
2022-08-25T10:25:34.985Z,72.68
2022-08-25T10:29:00.292Z,73.48
2022-08-25T10:32:26.181Z,71.22
2022-08-25T10:35:45.547Z,70.53
2022-08-25T10:39:02.093Z,70.16
2022-08-25T10:42:26.076Z,68.68
2022-08-25T10:45:45.751Z,68.10
2022-08-25T10:49:18.804Z,68.13
2022-08-25T10:52:42.892Z,66.71
2022-08-25T10:56:03.213Z,66.18
2022-08-25T10:59:27.916Z,65.67
2022-08-25T11:02:57.617Z,63.72
2022-08-25T11:06:05.883Z,63.64
2022-08-25T11:09:12.554Z,64.75
2022-08-25T11:12:22.766Z,63.20
2022-08-25T11:15:36.951Z,64.16
2022-08-25T11:18:46.311Z,65.04
2022-08-25T11:22:28.313Z,64.10
2022-08-25T11:25:35.499Z,65.11
2022-08-25T11:29:18.193Z,63.07
2022-08-25T11:32:22.893Z,60.91
2022-08-25T11:35:39.087Z,60.14
2022-08-25T11:39:18.407Z,60.01
2022-08-25T11:42:51.605Z,60.20
2022-08-25T11:46:12.464Z,61.51
2022-08-25T11:49:53.207Z,61.35
2022-08-25T11:52:58.223Z,61.47
2022-08-25T11:56:04.594Z,60.16
2022-08-25T11:59:06.831Z,58.81
2022-08-25T12:02:28.007Z,59.77
2022-08-25T12:05:51.028Z,60.39
2022-08-25T12:09:03.466Z,59.11
2022-08-25T12:12:31.694Z,57.13
2022-08-25T12:15:43.039Z,57.65
2022-08-25T12:18:46.353Z,55.65
2022-08-25T12:21:48.644Z,55.00
2022-08-25T12:24:55.116Z,52.66
2022-08-25T12:28:36.034Z,53.18
2022-08-25T12:32:04.340Z,53.62
2022-08-25T12:35:36.677Z,51.92
2022-08-25T12:38:43.691Z,52.10
2022-08-25T12:45:21.273Z,53.26
2022-08-25T12:48:29.270Z,50.56
2022-08-25T12:51:48.975Z,49.05
2022-08-25T12:55:00.753Z,48.87
2022-08-25T12:58:05.139Z,49.34
2022-08-25T13:01:35.709Z,49.86
2022-08-25T13:04:57.176Z,47.24
2022-08-25T13:08:15.117Z,47.17
2022-08-25T13:11:58.824Z,47.31
2022-08-25T13:15:01.180Z,46.30
2022-08-25T13:18:25.286Z,45.24
2022-08-25T13:21:39.788Z,46.35
2022-08-25T13:24:43.834Z,45.15
2022-08-25T13:28:03.517Z,45.44
2022-08-25T13:31:10.437Z,45.91
2022-08-25T13:34:19.777Z,44.23
2022-08-25T13:37:32.380Z,44.88
2022-08-25T13:40:36.822Z,45.87
2022-08-25T13:43:39.799Z,44.88
2022-08-25T13:46:43.862Z,45.19
2022-08-25T13:49:47.803Z,44.75
2022-08-25T13:52:55.753Z,46.39
2022-08-25T13:56:00.820Z,45.90
2022-08-25T13:59:06.564Z,45.22
2022-08-25T14:02:19.318Z,43.04
2022-08-25T14:05:43.142Z,43.06
2022-08-25T14:08:59.972Z,43.41
2022-08-25T14:12:01.966Z,44.04
2022-08-25T14:15:18.527Z,42.90
2022-08-25T14:18:26.962Z,41.73
2022-08-25T14:21:31.431Z,42.35
2022-08-25T14:24:40.713Z,42.81
2022-08-25T14:28:06.923Z,42.34
2022-08-25T14:31:39.588Z,41.53
2022-08-25T14:34:42.765Z,40.61
2022-08-25T14:37:45.147Z,40.08
2022-08-25T14:40:48.054Z,41.22
2022-08-25T14:43:50.363Z,42.45
2022-08-25T14:46:56.732Z,42.99
2022-08-25T14:49:58.856Z,43.02
2022-08-25T14:53:00.973Z,42.54
2022-08-25T14:56:08.387Z,43.81
2022-08-25T14:59:12.136Z,44.55
2022-08-25T15:02:19.924Z,43.47
2022-08-25T15:05:28.241Z,43.13
2022-08-25T15:08:48.910Z,42.30
2022-08-25T15:11:58.125Z,41.61
2022-08-25T15:15:01.885Z,41.52
2022-08-25T15:18:04.488Z,41.76
2022-08-25T15:21:06.781Z,42.78
2022-08-25T15:24:10.180Z,42.55
2022-08-25T15:27:13.885Z,42.78
2022-08-25T15:30:16.043Z,41.21
2022-08-25T15:33:18.189Z,42.02
2022-08-25T15:36:24.588Z,42.26
2022-08-25T15:39:27.314Z,42.84
2022-08-25T15:42:29.195Z,42.31
2022-08-25T15:45:31.743Z,43.90
2022-08-25T15:48:35.744Z,44.43
2022-08-25T15:51:38.400Z,44.57
2022-08-25T15:54:40.377Z,45.44
2022-08-25T15:57:43.668Z,46.59
2022-08-25T16:00:56.006Z,46.96
2022-08-25T16:03:59.285Z,47.02
2022-08-25T16:07:01.234Z,48.26
2022-08-25T16:10:04.301Z,47.37
2022-08-25T16:13:06.960Z,48.55
2022-08-25T16:16:10.765Z,49.80
2022-08-25T16:19:15.194Z,49.92
2022-08-25T16:22:17.534Z,50.32
2022-08-25T16:25:19.420Z,50.58
2022-08-25T16:28:24.445Z,49.76
2022-08-25T16:31:26.917Z,49.80
2022-08-25T16:34:30.698Z,50.43
2022-08-25T16:37:35.120Z,50.33
2022-08-25T16:40:40.211Z,50.05
2022-08-25T16:43:44.153Z,50.28
2022-08-25T16:46:46.247Z,48.91
2022-08-25T16:49:49.102Z,48.21
2022-08-25T16:53:09.266Z,47.96
2022-08-25T16:56:11.582Z,47.38
2022-08-25T16:59:14.577Z,49.67
2022-08-25T17:02:16.573Z,49.42
2022-08-25T17:05:20.774Z,50.72
2022-08-25T17:08:29.009Z,50.28
2022-08-25T17:11:35.126Z,51.81
2022-08-25T17:14:36.771Z,51.81
2022-08-25T17:17:38.453Z,52.82
2022-08-25T17:20:43.318Z,53.87
2022-08-25T17:23:45.372Z,53.69
2022-08-25T17:26:51.044Z,54.82
2022-08-25T17:29:52.664Z,55.58
2022-08-25T17:32:54.603Z,56.12
2022-08-25T17:35:57.568Z,57.12
2022-08-25T17:38:59.275Z,57.00
2022-08-25T17:42:00.875Z,56.64
2022-08-25T17:45:03.794Z,56.75
2022-08-25T17:48:08.761Z,56.38
2022-08-25T17:51:11.209Z,57.53
2022-08-25T17:54:14.105Z,57.25
2022-08-25T17:57:16.297Z,57.71
2022-08-25T18:00:20.819Z,58.07
2022-08-25T18:03:22.806Z,58.35
2022-08-25T18:06:29.441Z,58.81
2022-08-25T18:09:32.164Z,59.84
2022-08-25T18:12:34.172Z,61.52
2022-08-25T18:15:36.084Z,62.00
2022-08-25T18:18:39.310Z,63.00
2022-08-25T18:21:41.383Z,63.89
2022-08-25T18:24:45.882Z,65.06
2022-08-25T18:27:47.516Z,66.00
2022-08-25T18:30:49.279Z,66.29
2022-08-25T18:33:52.263Z,67.38
2022-08-25T18:36:54.033Z,68.23
2022-08-25T18:40:15.658Z,68.85
2022-08-25T18:43:17.665Z,69.80
2022-08-25T18:46:22.753Z,70.03
2022-08-25T18:49:26.785Z,70.82
2022-08-25T18:52:30.459Z,71.72
2022-08-25T18:55:33.679Z,72.38
2022-08-25T18:58:36.087Z,73.58
2022-08-25T19:01:37.955Z,73.81
2022-08-25T19:04:40.698Z,73.95
2022-08-25T19:07:47.534Z,74.26
2022-08-25T19:10:54.340Z,74.59
2022-08-25T19:13:56.333Z,75.13
2022-08-25T19:16:58.694Z,75.15
2022-08-25T19:20:01.531Z,76.22
2022-08-25T19:23:03.775Z,76.01
2022-08-25T19:26:13.934Z,75.88
2022-08-25T19:29:19.839Z,75.62
2022-08-25T19:32:21.638Z,76.48
2022-08-25T19:35:39.744Z,76.58
2022-08-25T19:38:44.130Z,76.81
2022-08-25T19:41:46.463Z,77.10
2022-08-25T19:44:48.615Z,76.98
2022-08-25T19:47:51.809Z,77.18
2022-08-25T19:50:56.105Z,77.82
2022-08-25T19:54:01.191Z,78.66
2022-08-25T19:57:07.888Z,78.47
2022-08-25T20:00:25.574Z,77.92
2022-08-25T20:03:27.612Z,78.59
2022-08-25T20:06:31.705Z,78.98
2022-08-25T20:09:39.616Z,79.54
2022-08-25T20:12:44.789Z,79.45
2022-08-25T20:15:47.313Z,80.19
2022-08-25T20:18:49.505Z,80.47
2022-08-25T20:21:51.256Z,80.63
2022-08-25T20:24:58.592Z,80.22
2022-08-25T20:28:01.662Z,81.09
2022-08-25T20:31:03.446Z,81.78
2022-08-25T20:34:05.835Z,82.49
2022-08-25T20:37:08.343Z,83.06
2022-08-25T20:40:12.565Z,83.09
2022-08-25T20:43:14.687Z,82.78
2022-08-25T20:46:16.980Z,83.59
2022-08-25T20:49:20.318Z,84.64
2022-08-25T20:52:22.007Z,84.74
2022-08-25T20:55:24.155Z,84.61
2022-08-25T20:58:26.498Z,85.26
2022-08-25T21:01:38.001Z,85.18
2022-08-25T21:04:48.959Z,85.23
2022-08-25T21:07:52.699Z,85.55
2022-08-25T21:10:54.425Z,86.14
2022-08-25T21:13:58.468Z,86.33
2022-08-25T21:17:00.600Z,87.01
2022-08-25T21:20:05.605Z,87.51
2022-08-25T21:23:08.399Z,87.83
2022-08-25T21:26:31.460Z,88.69
2022-08-25T21:29:33.911Z,89.03
2022-08-25T21:32:35.823Z,88.85
2022-08-25T21:35:40.639Z,90.18
2022-08-25T21:38:44.728Z,90.83
2022-08-25T21:41:47.133Z,91.02
2022-08-25T21:44:50.633Z,91.82
2022-08-25T21:47:52.459Z,92.61
2022-08-25T21:51:09.137Z,92.46
2022-08-25T21:54:18.171Z,91.56
2022-08-25T21:57:26.014Z,92.74
2022-08-25T22:00:27.791Z,92.26
2022-08-25T22:03:29.642Z,93.01
2022-08-25T22:06:32.029Z,93.78
2022-08-25T22:09:35.439Z,94.08
2022-08-25T22:13:32.275Z,94.81
2022-08-25T22:16:59.578Z,95.94
2022-08-25T22:20:01.732Z,96.00
2022-08-25T22:23:03.427Z,97.17
2022-08-25T22:26:05.601Z,97.72
2022-08-25T22:29:07.816Z,99.21
2022-08-25T22:32:09.819Z,100.00
2022-08-25T22:35:15.389Z,100.00
2022-08-25T22:38:20.243Z,100.00
2022-08-25T22:41:24.087Z,100.00
2022-08-25T22:44:26.896Z,100.00
2022-08-25T22:47:28.506Z,100.00
2022-08-25T22:50:31.366Z,100.00
2022-08-25T22:53:34.472Z,100.00
2022-08-25T22:56:39.044Z,100.00
2022-08-25T23:00:37.385Z,100.00
2022-08-25T23:04:29.967Z,100.00
2022-08-25T23:07:40.191Z,100.00
2022-08-25T23:10:49.335Z,100.00
2022-08-25T23:13:55.257Z,100.00
2022-08-25T23:16:57.233Z,100.00
2022-08-25T23:19:59.727Z,100.00
2022-08-25T23:23:02.839Z,100.00
2022-08-25T23:26:05.201Z,100.00
2022-08-25T23:29:07.403Z,100.00
2022-08-25T23:32:20.797Z,100.00
2022-08-25T23:35:23.626Z,100.00
2022-08-25T23:38:25.420Z,100.00
2022-08-25T23:41:29.905Z,100.00
2022-08-25T23:44:32.260Z,100.00
2022-08-25T23:47:33.927Z,100.00
2022-08-25T23:50:45.952Z,100.00
2022-08-25T23:53:47.740Z,100.00
2022-08-25T23:56:51.871Z,100.00
2022-08-25T23:59:54.289Z,100.00
